Time;durP1;ratioP1;P1;durP2;ratioP2;P2;SDS_P1;SDS_P2;PMS_P1;PMS_P2;Temp;Humidity;BMP_temperature;BMP_pressure;BME280_temperature;BME280_humidity;BME280_pressure;Samples;Min_cycle;Max_cycle;Signal;HPM_P1;HPM_P2
2021/11/02 00:01:09;;;;;;;37.28;23.75;;;10.20;99.90;;;;;;4935775;29;20047;-78
2021/11/02 00:03:37;;;;;;;42.45;23.55;;;10.30;99.90;;;;;;4934754;29;20039;-79
2021/11/02 00:06:05;;;;;;;39.05;24.88;;;10.60;99.90;;;;;;4951262;29;20049;-81
2021/11/02 00:08:32;;;;;;;40.40;24.25;;;10.80;99.90;;;;;;4935116;29;20043;-79
2021/11/02 00:11:00;;;;;;;39.38;24.73;;;10.80;99.90;;;;;;4950352;29;20438;-78
2021/11/02 00:13:30;;;;;;;38.63;25.85;;;10.90;99.90;;;;;;4955577;28;20046;-77
2021/11/02 00:16:00;;;;;;;40.22;25.02;;;10.70;99.90;;;;;;4974004;28;20057;-80
2021/11/02 00:18:28;;;;;;;43.13;25.30;;;10.60;99.90;;;;;;4957178;28;20122;-81
2021/11/02 00:21:00;;;;;;;38.30;24.27;;;10.60;99.90;;;;;;4973485;28;20093;-80
2021/11/02 00:23:35;;;;;;;37.63;24.40;;;10.40;99.90;;;;;;4974303;28;20031;-81
2021/11/02 00:26:10;;;;;;;44.72;24.63;;;10.70;99.90;;;;;;4974746;28;20057;-81
2021/11/02 00:28:39;;;;;;;39.63;23.75;;;10.80;99.90;;;;;;4973520;28;20031;-80
2021/11/02 00:31:06;;;;;;;38.47;24.30;;;10.20;99.90;;;;;;4973530;28;20051;-84
2021/11/02 00:33:35;;;;;;;40.80;24.92;;;10.30;99.90;;;;;;4973991;28;20031;-84
2021/11/02 00:36:02;;;;;;;38.92;25.08;;;10.60;99.90;;;;;;4973929;28;20043;-85
2021/11/02 00:38:29;;;;;;;49.88;29.70;;;10.70;99.90;;;;;;4973598;28;20041;-85
2021/11/02 00:40:57;;;;;;;61.85;37.60;;;10.90;99.90;;;;;;4973868;28;20073;-83
2021/11/02 00:43:25;;;;;;;60.03;37.80;;;10.90;99.90;;;;;;4956851;28;20038;-84
2021/11/02 00:45:52;;;;;;;60.33;39.50;;;11.00;99.90;;;;;;4973284;28;20051;-77
2021/11/02 00:48:27;;;;;;;62.13;42.17;;;10.90;99.90;;;;;;4973651;28;20093;-81
2021/11/02 00:50:55;;;;;;;65.47;42.00;;;10.90;99.90;;;;;;4974146;28;20049;-81
2021/11/02 00:53:23;;;;;;;65.55;41.75;;;10.90;99.90;;;;;;4973108;28;20045;-87
2021/11/02 00:55:51;;;;;;;70.70;44.17;;;10.90;99.90;;;;;;4973676;28;20525;-87
2021/11/02 00:58:21;;;;;;;64.88;42.53;;;10.80;99.90;;;;;;4954054;29;20114;-85
2021/11/02 01:00:48;;;;;;;68.07;43.43;;;10.70;99.90;;;;;;4936576;29;20047;-80
2021/11/02 01:03:16;;;;;;;74.53;43.22;;;10.80;99.90;;;;;;4953874;29;20035;-80
2021/11/02 01:05:43;;;;;;;84.30;47.42;;;10.90;99.90;;;;;;4969233;28;20133;-83
2021/11/02 01:08:10;;;;;;;75.68;45.88;;;11.00;99.90;;;;;;4953297;29;20497;-79
2021/11/02 01:10:38;;;;;;;77.20;46.20;;;10.90;99.90;;;;;;4953259;29;20039;-79
2021/11/02 01:13:05;;;;;;;77.93;47.55;;;10.90;99.90;;;;;;4952887;29;20762;-84
2021/11/02 01:15:33;;;;;;;74.68;45.33;;;10.80;99.90;;;;;;4953930;29;20051;-84
2021/11/02 01:18:00;;;;;;;74.53;45.47;;;10.50;99.90;;;;;;4953698;29;20372;-82
2021/11/02 01:20:28;;;;;;;64.80;38.55;;;10.60;99.90;;;;;;4954061;29;20111;-80
2021/11/02 01:22:56;;;;;;;65.80;38.75;;;10.40;99.90;;;;;;4952015;28;20514;-81
2021/11/02 01:25:24;;;;;;;65.72;39.75;;;10.70;99.90;;;;;;4936005;29;20067;-79
2021/11/02 01:27:52;;;;;;;68.55;42.38;;;10.50;99.90;;;;;;4953167;29;20090;-80
2021/11/02 01:30:21;;;;;;;63.38;39.58;;;10.40;99.90;;;;;;4953016;29;20042;-78
2021/11/02 01:32:48;;;;;;;56.72;35.95;;;10.40;99.90;;;;;;4953149;29;20126;-79
2021/11/02 01:35:16;;;;;;;52.17;34.88;;;10.10;99.90;;;;;;4953592;29;20049;-78
2021/11/02 01:37:43;;;;;;;57.47;36.92;;;9.90;99.90;;;;;;4952613;29;20478;-77
2021/11/02 01:40:14;;;;;;;70.63;40.45;;;10.30;99.90;;;;;;4953036;29;20102;-83
2021/11/02 01:42:42;;;;;;;60.17;37.58;;;10.60;99.90;;;;;;4953073;29;20043;-77
2021/11/02 01:45:11;;;;;;;61.83;39.42;;;10.80;99.90;;;;;;4952868;29;20364;-83
2021/11/02 01:47:47;;;;;;;62.72;40.15;;;10.80;99.90;;;;;;4953197;29;20039;-83
2021/11/02 01:50:15;;;;;;;69.82;40.38;;;10.90;99.90;;;;;;4953075;29;20043;-81
2021/11/02 01:52:42;;;;;;;68.57;41.88;;;10.80;99.90;;;;;;4953719;29;20122;-75
2021/11/02 01:55:12;;;;;;;62.20;40.25;;;10.70;99.90;;;;;;4961482;28;20043;-87
2021/11/02 01:57:40;;;;;;;58.00;36.17;;;10.30;99.90;;;;;;4971766;28;20039;-80
2021/11/02 02:00:12;;;;;;;52.33;34.90;;;9.90;99.90;;;;;;4972032;28;20042;-79
2021/11/02 02:02:46;;;;;;;55.70;35.03;;;9.80;99.90;;;;;;4972094;28;20117;-78
2021/11/02 02:05:17;;;;;;;54.30;33.30;;;10.10;99.90;;;;;;4972581;28;20051;-76
2021/11/02 02:08:22;;;;;;;52.22;31.35;;;10.50;99.90;;;;;;4972670;28;20474;-77
2021/11/02 02:11:20;;;;;;;52.95;33.20;;;10.60;99.90;;;;;;4973001;28;20066;-76
2021/11/02 02:14:10;;;;;;;51.78;34.03;;;10.70;99.90;;;;;;4972671;28;20106;-77
2021/11/02 02:16:44;;;;;;;50.38;33.15;;;10.70;99.90;;;;;;4971890;28;20050;-82
2021/11/02 02:19:37;;;;;;;49.78;31.00;;;10.60;99.90;;;;;;4972701;28;20073;-82
2021/11/02 02:22:27;;;;;;;45.83;29.02;;;10.50;99.90;;;;;;4987758;28;20035;-83
2021/11/02 02:25:31;;;;;;;39.10;27.85;;;10.30;99.90;;;;;;4972705;28;20385;-80
2021/11/02 02:28:04;;;;;;;37.92;24.85;;;10.10;99.90;;;;;;4970336;28;20043;-79
2021/11/02 02:30:34;;;;;;;40.92;26.50;;;10.30;99.90;;;;;;4971892;28;20039;-82
2021/11/02 02:33:03;;;;;;;48.22;29.35;;;10.40;99.90;;;;;;4971545;28;20043;-79
2021/11/02 02:35:31;;;;;;;40.65;26.38;;;10.50;99.90;;;;;;4974199;28;20041;-76
2021/11/02 02:38:01;;;;;;;44.35;26.38;;;10.60;99.90;;;;;;4975929;28;20483;-78
2021/11/02 02:40:30;;;;;;;40.70;27.00;;;10.60;99.90;;;;;;4976134;28;20074;-77
2021/11/02 02:42:59;;;;;;;37.85;26.27;;;10.50;99.90;;;;;;4976112;28;20039;-76
2021/11/02 02:45:29;;;;;;;42.25;26.60;;;10.60;99.90;;;;;;4975741;28;20058;-78
2021/11/02 02:47:59;;;;;;;42.43;26.90;;;10.70;99.90;;;;;;4958305;28;20042;-83
2021/11/02 02:50:26;;;;;;;42.35;27.67;;;10.60;99.90;;;;;;4976057;28;20668;-83
2021/11/02 02:52:55;;;;;;;38.20;26.75;;;10.40;99.90;;;;;;4991002;28;20053;-81
2021/11/02 02:55:23;;;;;;;45.70;26.13;;;10.50;99.90;;;;;;4967981;28;20037;-78
2021/11/02 02:57:53;;;;;;;42.35;28.00;;;10.60;99.90;;;;;;4954470;29;20043;-79
2021/11/02 03:00:20;;;;;;;51.78;29.45;;;10.70;99.90;;;;;;4954756;29;20039;-79
2021/11/02 03:02:50;;;;;;;41.17;28.35;;;10.80;99.90;;;;;;4954748;29;20543;-79
2021/11/02 03:05:19;;;;;;;40.60;27.65;;;10.80;99.90;;;;;;4939339;29;20039;-79
2021/11/02 03:07:47;;;;;;;35.95;23.48;;;10.80;99.90;;;;;;4939468;29;20094;-79
2021/11/02 03:10:15;;;;;;;33.58;23.05;;;10.90;99.90;;;;;;4939306;29;20054;-79
2021/11/02 03:12:47;;;;;;;35.55;23.33;;;10.90;99.90;;;;;;4971349;28;20127;-78
2021/11/02 03:15:45;;;;;;;34.45;22.90;;;10.90;99.90;;;;;;4955304;29;20041;-76
2021/11/02 05:13:32;;;;;;;44.00;26.67;;;9.90;99.90;;;;;;4973061;28;20078;-79
2021/11/02 05:59:40;;;;;;;54.38;32.42;;;10.00;99.90;;;;;;4946839;28;20039;-81
2021/11/02 06:02:36;;;;;;;40.20;25.52;;;10.00;99.90;;;;;;4963990;28;20038;-78
2021/11/02 06:29:48;;;;;;;39.58;24.30;;;9.90;99.90;;;;;;4975483;28;20043;-82
2021/11/02 06:32:28;;;;;;;37.17;24.60;;;10.20;99.90;;;;;;4990930;28;20052;-79
2021/11/02 06:35:11;;;;;;;;;;;10.10;99.90;;;;;;4991636;28;20440;-79
2021/11/02 07:00:56;;;;;;;38.92;24.58;;;10.20;99.90;;;;;;4939355;28;20132;-77
2021/11/02 08:48:01;;;;;;;38.22;25.75;;;10.90;99.90;;;;;;4974015;28;20126;-80
2021/11/02 08:50:36;;;;;;;40.78;26.65;;;10.90;99.90;;;;;;4974049;28;20043;-80
2021/11/02 08:53:05;;;;;;;40.35;25.77;;;10.80;99.90;;;;;;4972727;28;20054;-78
2021/11/02 08:55:34;;;;;;;37.17;25.38;;;10.90;99.90;;;;;;4940806;28;20050;-79
2021/11/02 08:58:03;;;;;;;38.53;24.17;;;11.00;99.90;;;;;;4955162;28;20039;-83
2021/11/02 09:00:31;;;;;;;37.83;26.13;;;11.30;99.90;;;;;;4954218;29;20110;-81
2021/11/02 09:03:21;;;;;;;42.50;26.38;;;11.50;99.90;;;;;;4953263;28;20058;-82
2021/11/02 09:06:00;;;;;;;35.33;24.05;;;11.80;99.90;;;;;;4954525;29;20039;-83
2021/11/02 09:08:29;;;;;;;37.00;24.30;;;12.00;99.90;;;;;;4937424;29;20043;-82
2021/11/02 09:11:00;;;;;;;34.92;25.10;;;12.50;99.90;;;;;;4954229;29;20277;-80
2021/11/02 09:13:32;;;;;;;40.30;25.23;;;12.90;99.90;;;;;;4953881;29;20133;-81
2021/11/02 09:16:02;;;;;;;;;;;13.10;99.90;;;;;;4937800;29;20035;-79
2021/11/02 09:18:30;;;;;;;34.72;22.45;;;13.30;99.90;;;;;;4954347;29;19961;-78
2021/11/02 09:20:59;;;;;;;35.10;24.20;;;13.60;99.90;;;;;;4952688;29;20094;-81
2021/11/02 09:23:26;;;;;;;38.88;24.42;;;14.20;99.90;;;;;;4953918;29;20043;-82
2021/11/02 09:25:55;;;;;;;34.80;23.70;;;14.40;99.90;;;;;;4953857;29;20043;-82
2021/11/02 09:28:25;;;;;;;32.38;22.30;;;14.00;99.90;;;;;;4953883;29;20045;-82
2021/11/02 09:30:52;;;;;;;37.85;24.23;;;14.00;99.90;;;;;;4952986;29;20442;-79
2021/11/02 09:33:21;;;;;;;40.25;26.67;;;13.90;99.90;;;;;;4953799;29;20035;-81
2021/11/02 09:36:00;;;;;;;45.88;28.70;;;14.00;99.90;;;;;;4953931;29;20046;-80
2021/11/02 09:38:53;;;;;;;44.40;27.85;;;14.30;99.90;;;;;;4953849;29;20478;-80
2021/11/02 09:41:39;;;;;;;40.75;25.90;;;14.60;99.90;;;;;;4953755;29;20121;-78
2021/11/02 09:44:29;;;;;;;38.40;22.65;;;14.80;99.90;;;;;;4935829;29;20138;-78
2021/11/02 09:47:09;;;;;;;;;;;14.90;99.90;;;;;;4954195;29;20110;-86
2021/11/02 09:50:24;;;;;;;29.23;19.50;;;15.10;99.90;;;;;;4954623;28;20289;-81
2021/11/02 09:53:09;;;;;;;31.02;20.65;;;15.80;99.90;;;;;;4902715;29;20059;-83
2021/11/02 09:55:57;;;;;;;27.02;18.42;;;15.90;99.90;;;;;;4922789;29;20062;-82
2021/11/02 09:58:55;;;;;;;28.23;19.23;;;16.90;99.90;;;;;;4974502;28;20043;-80
2021/11/02 10:01:39;;;;;;;29.88;19.77;;;17.00;99.90;;;;;;4972724;28;20346;-85
2021/11/02 10:04:21;;;;;;;25.77;18.08;;;17.00;99.90;;;;;;4973800;28;20047;-81
2021/11/02 10:07:04;;;;;;;28.33;18.55;;;17.80;99.90;;;;;;4974369;28;20135;-92
2021/11/02 10:09:38;;;;;;;26.25;18.27;;;18.00;99.90;;;;;;4971644;28;20062;-87
2021/11/02 10:12:18;;;;;;;29.48;20.40;;;17.60;99.90;;;;;;4973144;28;20039;-81
2021/11/02 10:15:35;;;;;;;32.10;21.52;;;18.00;99.90;;;;;;4973116;28;20054;-80
2021/11/02 10:18:27;;;;;;;28.70;18.42;;;18.00;99.90;;;;;;4932362;29;20160;-86
2021/11/02 10:21:10;;;;;;;24.50;18.48;;;17.60;99.90;;;;;;4948606;29;20071;-83
2021/11/02 10:24:09;;;;;;;27.23;19.40;;;17.40;99.90;;;;;;4951554;28;20382;-83
2021/11/02 10:26:51;;;;;;;27.27;20.50;;;17.70;99.90;;;;;;4969117;28;20074;-80
2021/11/02 10:29:39;;;;;;;29.20;20.73;;;16.70;99.90;;;;;;4970608;28;20034;-84
2021/11/02 10:32:14;;;;;;;31.30;20.33;;;16.00;99.90;;;;;;4956074;28;20043;-80
2021/11/02 10:35:23;;;;;;;31.15;20.13;;;16.10;99.90;;;;;;4973688;28;20051;-89
2021/11/02 10:38:03;;;;;;;30.63;20.13;;;16.10;99.90;;;;;;4957428;28;20394;-82
2021/11/02 10:40:39;;;;;;;28.17;19.42;;;16.30;99.90;;;;;;4973150;28;20034;-86
2021/11/02 10:43:12;;;;;;;26.70;17.92;;;16.00;99.90;;;;;;4973461;28;20419;-88
2021/11/02 10:45:53;;;;;;;25.88;18.17;;;16.10;99.90;;;;;;4955106;28;20038;-84
2021/11/02 10:48:47;;;;;;;24.67;17.08;;;16.10;99.90;;;;;;4970709;28;20066;-83
2021/11/02 10:52:00;;;;;;;25.83;18.23;;;15.50;99.90;;;;;;4972684;28;20098;-82
2021/11/02 10:54:49;;;;;;;25.90;17.42;;;15.80;99.90;;;;;;4972242;28;20034;-79
2021/11/02 10:57:38;;;;;;;26.83;17.80;;;15.90;99.90;;;;;;4954796;29;20044;-82
2021/11/02 11:00:08;;;;;;;24.77;17.10;;;16.00;99.90;;;;;;4955893;29;20078;-81
2021/11/02 11:02:40;;;;;;;26.15;17.17;;;15.80;99.90;;;;;;4956415;29;20114;-80
2021/11/02 11:05:12;;;;;;;25.25;18.70;;;15.80;99.90;;;;;;4939508;29;20102;-83
2021/11/02 11:07:44;;;;;;;30.25;18.00;;;15.50;99.90;;;;;;4954886;29;20126;-82
2021/11/02 11:10:14;;;;;;;23.98;16.02;;;15.60;99.90;;;;;;4956719;29;20043;-84
2021/11/02 11:12:53;;;;;;;21.85;15.40;;;15.70;99.90;;;;;;4939250;29;20450;-84
2021/11/02 11:15:22;;;;;;;25.20;16.40;;;15.80;99.90;;;;;;4956535;29;20102;-84
2021/11/02 11:17:55;;;;;;;19.90;14.73;;;16.20;99.90;;;;;;4956591;29;20037;-82
2021/11/02 11:20:23;;;;;;;22.70;14.50;;;16.50;99.90;;;;;;4939793;29;20042;-81
2021/11/02 11:22:53;;;;;;;19.17;14.30;;;17.00;99.90;;;;;;4954804;29;20047;-81
2021/11/02 11:25:28;;;;;;;20.75;14.27;;;17.30;99.90;;;;;;4956510;29;20340;-82
2021/11/02 11:28:01;;;;;;;17.77;13.30;;;16.90;99.90;;;;;;4955828;29;20081;-81
2021/11/02 11:30:35;;;;;;;18.55;12.93;;;15.80;99.90;;;;;;4956045;29;20051;-80
2021/11/02 11:33:09;;;;;;;15.95;11.50;;;15.90;99.90;;;;;;4955992;29;20414;-82
2021/11/02 11:35:37;;;;;;;15.27;11.68;;;16.30;99.90;;;;;;4970394;28;20051;-84
2021/11/02 11:38:07;;;;;;;15.27;11.50;;;15.90;99.90;;;;;;4938282;29;20086;-83
2021/11/02 11:40:36;;;;;;;14.50;10.63;;;15.60;99.90;;;;;;4955782;29;20439;-84
2021/11/02 11:43:06;;;;;;;13.23;10.50;;;15.60;99.90;;;;;;4953681;29;20423;-81
2021/11/02 11:45:38;;;;;;;13.73;9.90;;;15.30;99.90;;;;;;4953953;29;20070;-81
2021/11/02 11:48:10;;;;;;;14.05;10.27;;;15.30;99.90;;;;;;4954733;29;20394;-82
2021/11/02 11:50:41;;;;;;;15.25;10.45;;;15.40;99.90;;;;;;4954980;29;20058;-81
2021/11/02 11:53:14;;;;;;;12.68;9.43;;;15.30;99.90;;;;;;4954499;29;20124;-80
2021/11/02 11:55:45;;;;;;;12.43;9.20;;;15.40;99.90;;;;;;4938088;29;20027;-79
2021/11/02 11:58:14;;;;;;;15.05;9.93;;;15.50;99.90;;;;;;4984705;28;20050;-83
2021/11/02 12:00:46;;;;;;;12.45;9.65;;;15.30;99.90;;;;;;4974423;28;20039;-83
2021/11/02 12:03:36;;;;;;;12.40;9.48;;;15.30;99.90;;;;;;4972891;28;20046;-82
2021/11/02 12:06:16;;;;;;;13.13;9.45;;;15.40;99.90;;;;;;4957445;28;20043;-83
2021/11/02 12:09:07;;;;;;;13.88;9.10;;;15.30;99.90;;;;;;4973163;28;20125;-82
2021/11/02 12:11:34;;;;;;;;;;;15.20;99.90;;;;;;4975021;28;20042;-80
2021/11/02 12:14:06;;;;;;;11.80;8.23;;;15.10;99.90;;;;;;4974189;28;19918;-82
2021/11/02 12:16:35;;;;;;;13.35;8.85;;;15.10;99.90;;;;;;4958395;28;20126;-83
2021/11/02 12:19:15;;;;;;;13.25;9.38;;;15.00;99.90;;;;;;4957509;28;20045;-80
2021/11/02 12:21:59;;;;;;;13.10;9.18;;;15.00;99.90;;;;;;4972731;28;20125;-80
2021/11/02 12:24:30;;;;;;;14.45;8.40;;;14.60;99.90;;;;;;4989018;28;20034;-81
2021/11/02 12:27:18;;;;;;;11.10;8.77;;;14.70;99.90;;;;;;4974353;28;20109;-81
2021/11/02 12:29:48;;;;;;;10.57;7.93;;;14.80;99.90;;;;;;4973896;28;20043;-81
2021/11/02 12:32:18;;;;;;;10.85;8.32;;;15.00;99.90;;;;;;4974647;28;20049;-81
2021/11/02 12:34:57;;;;;;;12.82;8.75;;;15.10;99.90;;;;;;4974161;28;20042;-81
2021/11/02 12:37:35;;;;;;;16.40;10.15;;;14.90;99.90;;;;;;4974076;28;20027;-80
2021/11/02 12:40:30;;;;;;;16.30;9.60;;;15.00;99.90;;;;;;4974060;28;20377;-81
2021/11/02 12:43:22;;;;;;;15.35;9.55;;;14.90;99.90;;;;;;4986128;28;20049;-81
2021/11/02 12:45:53;;;;;;;20.13;10.63;;;14.80;99.90;;;;;;4956460;28;20119;-80
2021/11/02 12:48:21;;;;;;;38.80;13.57;;;15.00;99.90;;;;;;4973610;28;20035;-78
2021/11/02 12:51:13;;;;;;;16.48;9.60;;;15.00;99.90;;;;;;4973632;28;20454;-76
2021/11/02 12:53:46;;;;;;;17.23;8.40;;;15.00;99.90;;;;;;4956579;28;20443;-80
2021/11/02 12:56:16;;;;;;;12.05;7.95;;;15.00;99.90;;;;;;4988766;28;20078;-75
2021/11/02 12:58:47;;;;;;;13.20;8.07;;;15.00;99.90;;;;;;4955538;28;20126;-75
2021/11/02 13:01:33;;;;;;;11.68;8.38;;;14.80;99.90;;;;;;4954304;29;20041;-77
2021/11/02 13:04:08;;;;;;;11.75;7.30;;;14.80;99.90;;;;;;4936751;29;20073;-79
2021/11/02 13:06:39;;;;;;;11.80;8.20;;;14.50;99.90;;;;;;4954180;29;20042;-78
2021/11/02 13:09:06;;;;;;;12.82;8.43;;;14.30;99.90;;;;;;4936528;29;20053;-77
2021/11/02 13:11:35;;;;;;;11.30;7.97;;;14.30;99.90;;;;;;4968824;28;20078;-79
2021/11/02 13:14:12;;;;;;;10.55;7.68;;;14.30;99.90;;;;;;4936479;29;20051;-80
2021/11/02 13:16:59;;;;;;;12.20;7.78;;;14.40;99.90;;;;;;4936341;29;20043;-79
2021/11/02 13:19:44;;;;;;;12.80;7.85;;;14.40;99.90;;;;;;4953936;28;20031;-80
2021/11/02 13:22:15;;;;;;;12.60;7.93;;;14.50;99.90;;;;;;4936993;29;20065;-78
2021/11/02 13:25:09;;;;;;;10.77;7.75;;;14.50;99.90;;;;;;4936415;29;20066;-78
2021/11/02 13:27:38;;;;;;;15.45;8.02;;;14.50;99.90;;;;;;4953436;29;20055;-77
2021/11/02 13:30:37;;;;;;;10.98;8.20;;;14.40;99.90;;;;;;4953472;29;20265;-75
2021/11/02 13:33:20;;;;;;;9.57;7.07;;;14.30;99.90;;;;;;4953725;29;20043;-76
2021/11/02 13:35:52;;;;;;;14.98;8.18;;;14.40;99.90;;;;;;4935749;29;20154;-78
2021/11/02 13:38:28;;;;;;;11.43;7.97;;;14.50;99.90;;;;;;4936085;29;20390;-78
2021/11/02 13:41:00;;;;;;;11.00;7.95;;;14.50;99.90;;;;;;4952020;29;20047;-79
2021/11/02 13:43:39;;;;;;;12.43;8.32;;;14.50;99.90;;;;;;4952979;29;20039;-79
2021/11/02 13:46:11;;;;;;;16.13;8.27;;;14.50;99.90;;;;;;4935760;29;20051;-80
2021/11/02 13:48:40;;;;;;;13.65;8.95;;;14.60;99.90;;;;;;4952417;29;20039;-79
2021/11/02 13:51:10;;;;;;;14.32;9.27;;;14.70;99.90;;;;;;4936096;29;20047;-79
2021/11/02 13:53:38;;;;;;;13.75;8.93;;;14.70;99.90;;;;;;4935923;29;20390;-78
2021/11/02 13:56:08;;;;;;;11.30;8.60;;;14.80;99.90;;;;;;4952944;29;20122;-82
2021/11/02 13:58:37;;;;;;;11.85;8.65;;;14.70;99.90;;;;;;4967588;28;20045;-80
2021/11/02 14:01:16;;;;;;;12.70;8.90;;;14.60;99.90;;;;;;4972636;28;20046;-81
2021/11/02 14:04:11;;;;;;;12.10;8.68;;;14.70;99.90;;;;;;4972219;28;20039;-79
2021/11/02 14:06:42;;;;;;;12.00;9.25;;;14.70;99.90;;;;;;4955540;28;20050;-82
2021/11/02 14:09:12;;;;;;;12.68;9.00;;;14.80;99.90;;;;;;4972686;28;20069;-79
2021/11/02 14:11:40;;;;;;;10.93;8.55;;;14.80;99.90;;;;;;4972540;28;20122;-77
2021/11/02 14:14:30;;;;;;;16.40;8.55;;;15.00;99.90;;;;;;4971331;28;20111;-76
2021/11/02 14:17:13;;;;;;;16.45;9.68;;;15.10;99.90;;;;;;4972411;28;20402;-75
2021/11/02 14:19:43;;;;;;;16.33;9.57;;;15.30;99.90;;;;;;4972476;28;20089;-77
2021/11/02 14:22:12;;;;;;;15.88;10.50;;;15.40;99.90;;;;;;4972301;28;20046;-78
2021/11/02 14:24:46;;;;;;;13.20;9.35;;;15.40;99.90;;;;;;4972507;28;20035;-79
2021/11/02 14:27:21;;;;;;;13.02;8.93;;;15.30;99.90;;;;;;4972343;28;20122;-77
2021/11/02 14:29:57;;;;;;;15.55;9.15;;;15.10;99.90;;;;;;4972713;28;20046;-76
2021/11/02 14:32:50;;;;;;;13.63;9.45;;;15.20;99.90;;;;;;4958444;28;20054;-77
2021/11/02 14:35:56;;;;;;;12.13;8.53;;;15.30;99.90;;;;;;4991103;28;20360;-77
2021/11/02 14:38:28;;;;;;;13.20;9.55;;;15.40;99.90;;;;;;4976520;28;20371;-77
2021/11/02 14:41:34;;;;;;;;;;;15.50;99.90;;;;;;4976444;28;20050;-78
2021/11/02 14:44:14;;;;;;;15.65;10.00;;;15.30;99.90;;;;;;4975958;28;20276;-77
2021/11/02 14:46:49;;;;;;;18.05;12.25;;;15.10;99.90;;;;;;4990558;28;20398;-77
2021/11/02 14:49:28;;;;;;;17.80;11.70;;;15.20;99.90;;;;;;4975628;28;20046;-80
2021/11/02 14:52:01;;;;;;;19.63;10.95;;;15.10;99.90;;;;;;4975592;28;20039;-79
2021/11/02 14:54:38;;;;;;;18.05;11.38;;;15.10;99.90;;;;;;4941940;28;20095;-78
2021/11/02 14:57:18;;;;;;;16.75;10.95;;;14.80;99.90;;;;;;4970764;28;20043;-77
2021/11/02 14:59:52;;;;;;;;;;;14.90;99.90;;;;;;4923497;29;20047;-81
2021/11/02 15:02:42;;;;;;;14.77;10.65;;;14.90;99.90;;;;;;4970781;28;19918;-79
2021/11/02 15:05:18;;;;;;;22.67;12.70;;;14.90;99.90;;;;;;4955973;29;20042;-79
2021/11/02 15:07:50;;;;;;;22.48;11.98;;;14.80;99.90;;;;;;4938583;29;20077;-79
2021/11/02 15:10:19;;;;;;;16.55;11.48;;;14.80;99.90;;;;;;4938196;29;20046;-80
2021/11/02 15:12:49;;;;;;;13.75;9.98;;;14.80;99.90;;;;;;4952017;28;20081;-81
2021/11/02 15:15:17;;;;;;;17.15;10.63;;;14.70;99.90;;;;;;4957649;28;20046;-79
2021/11/02 15:17:48;;;;;;;15.60;10.63;;;14.70;99.90;;;;;;4958189;28;20050;-80
2021/11/02 15:20:27;;;;;;;14.23;10.60;;;14.70;99.90;;;;;;4961271;28;20081;-76
2021/11/02 15:22:58;;;;;;;20.33;10.68;;;14.70;99.90;;;;;;4955831;29;20469;-78
2021/11/02 15:25:26;;;;;;;19.65;12.90;;;14.70;99.90;;;;;;4955039;28;20070;-79
2021/11/02 15:28:03;;;;;;;20.27;12.60;;;14.70;99.90;;;;;;4964679;28;20441;-77
2021/11/02 15:30:32;;;;;;;18.00;11.10;;;14.70;99.90;;;;;;4969197;28;20042;-76
2021/11/02 15:33:00;;;;;;;15.35;11.68;;;14.80;99.90;;;;;;4966877;28;20042;-77
2021/11/02 15:35:27;;;;;;;15.63;11.05;;;14.80;99.90;;;;;;4947056;28;20066;-79
2021/11/02 15:37:59;;;;;;;18.55;11.45;;;14.80;99.90;;;;;;4962507;28;20049;-77
2021/11/02 15:40:42;;;;;;;16.38;10.93;;;14.80;99.90;;;;;;4964326;28;20033;-79
2021/11/02 15:43:14;;;;;;;19.63;11.90;;;14.70;99.90;;;;;;4964550;28;20114;-79
2021/11/02 15:45:45;;;;;;;17.85;13.07;;;14.70;99.90;;;;;;4954692;28;20049;-76
2021/11/02 15:48:26;;;;;;;21.98;13.30;;;14.70;99.90;;;;;;4962376;28;20156;-78
2021/11/02 15:50:55;;;;;;;20.75;12.93;;;14.70;99.90;;;;;;4976800;28;20406;-75
2021/11/02 15:53:29;;;;;;;20.13;12.52;;;14.70;99.90;;;;;;4961353;28;20145;-78
2021/11/02 15:56:03;;;;;;;21.13;12.98;;;14.60;99.90;;;;;;4953560;28;20118;-77
2021/11/02 15:58:33;;;;;;;29.45;16.38;;;14.60;99.90;;;;;;4962165;28;20388;-79
2021/11/02 16:01:01;;;;;;;26.30;15.80;;;14.50;99.90;;;;;;4937830;28;20383;-78
2021/11/02 16:03:34;;;;;;;19.25;14.00;;;14.40;99.90;;;;;;4963053;28;20094;-78
2021/11/02 16:06:05;;;;;;;22.45;13.35;;;14.50;99.90;;;;;;4946389;28;20035;-76
2021/11/02 16:08:34;;;;;;;18.88;11.90;;;14.40;99.90;;;;;;4964200;28;20352;-78
2021/11/02 16:11:05;;;;;;;21.20;14.43;;;14.40;99.90;;;;;;4967778;28;20050;-77
2021/11/02 16:13:33;;;;;;;32.53;21.05;;;14.40;99.90;;;;;;4963771;28;20070;-78
2021/11/02 16:16:01;;;;;;;33.65;22.92;;;14.40;99.90;;;;;;4969130;28;20607;-77
2021/11/02 16:18:33;;;;;;;36.03;24.83;;;14.40;99.90;;;;;;4965854;28;20035;-79
2021/11/02 16:21:02;;;;;;;;;;;14.30;99.90;;;;;;4938682;28;20047;-76
2021/11/02 16:23:43;;;;;;;38.72;25.15;;;14.20;99.90;;;;;;4948286;28;19925;-80
2021/11/02 16:26:30;;;;;;;48.83;28.25;;;14.00;99.90;;;;;;4965517;28;20336;-77
2021/11/02 16:29:13;;;;;;;43.60;28.38;;;13.60;99.90;;;;;;4964029;28;20482;-81
2021/11/02 16:31:41;;;;;;;45.50;29.80;;;13.50;99.90;;;;;;4970767;28;20109;-79
2021/11/02 16:34:20;;;;;;;45.60;28.48;;;13.60;99.90;;;;;;4972326;28;20089;-77
2021/11/02 16:36:48;;;;;;;44.72;29.17;;;13.50;99.90;;;;;;4968001;28;20043;-76
2021/11/02 16:39:16;;;;;;;42.28;29.10;;;13.50;99.90;;;;;;4943540;28;20090;-82
2021/11/02 16:41:58;;;;;;;51.60;31.00;;;13.40;99.90;;;;;;4966870;28;20036;-82
2021/11/02 16:44:38;;;;;;;46.28;31.23;;;13.80;99.90;;;;;;4961147;28;20041;-78
2021/11/02 16:47:13;;;;;;;67.55;40.53;;;13.60;99.90;;;;;;4961840;28;20043;-78
2021/11/02 16:49:42;;;;;;;47.38;28.98;;;13.80;99.90;;;;;;4964987;28;20062;-80
2021/11/02 16:52:26;;;;;;;54.08;33.55;;;13.80;99.90;;;;;;4988529;28;20066;-80
2021/11/02 16:55:10;;;;;;;60.60;36.85;;;14.00;99.90;;;;;;4987313;28;20038;-78
2021/11/02 16:57:39;;;;;;;51.10;29.85;;;14.10;99.90;;;;;;4960566;28;20102;-79
2021/11/02 17:00:10;;;;;;;42.92;26.25;;;14.40;99.90;;;;;;4954112;29;20046;-80
2021/11/02 17:02:45;;;;;;;103.47;55.55;;;14.10;99.90;;;;;;4955974;28;20105;-81
2021/11/02 17:05:21;;;;;;;62.30;38.70;;;14.30;99.90;;;;;;4973279;28;20035;-80
2021/11/02 17:07:49;;;;;;;55.35;32.80;;;13.90;99.90;;;;;;4972944;28;20474;-77
2021/11/02 17:10:23;;;;;;;40.90;24.88;;;13.90;99.90;;;;;;4972674;28;20046;-78
2021/11/02 17:13:00;;;;;;;34.20;22.50;;;13.70;99.90;;;;;;4955892;28;20083;-77
2021/11/02 17:15:33;;;;;;;36.67;23.40;;;13.50;99.90;;;;;;4987738;28;20051;-76
2021/11/02 17:18:03;;;;;;;34.67;24.25;;;13.50;99.90;;;;;;4973200;28;20041;-76
2021/11/02 17:20:31;;;;;;;34.38;22.52;;;13.50;99.90;;;;;;4972620;28;20041;-77
2021/11/02 17:22:58;;;;;;;36.53;22.70;;;13.50;99.90;;;;;;4972283;28;20039;-76
2021/11/02 17:25:28;;;;;;;37.05;23.77;;;13.50;99.90;;;;;;4972642;28;20047;-79
2021/11/02 17:27:56;;;;;;;35.17;23.08;;;13.50;99.90;;;;;;4972239;28;20061;-76
2021/11/02 17:30:27;;;;;;;33.40;22.83;;;13.50;99.90;;;;;;4971726;28;20114;-77
2021/11/02 17:32:55;;;;;;;37.88;23.75;;;13.50;99.90;;;;;;4972198;28;20039;-80
2021/11/02 17:35:24;;;;;;;34.05;22.42;;;13.60;99.90;;;;;;4971626;28;20038;-79
2021/11/02 17:37:54;;;;;;;35.75;21.38;;;13.60;99.90;;;;;;4942544;28;20047;-79
2021/11/02 17:40:24;;;;;;;30.45;21.65;;;13.70;99.90;;;;;;4970727;28;20065;-74
2021/11/02 17:42:55;;;;;;;34.57;22.53;;;13.90;99.90;;;;;;4955827;28;20039;-77
2021/11/02 17:45:25;;;;;;;37.95;23.08;;;13.90;99.90;;;;;;4951762;29;20031;-76
2021/11/02 17:47:55;;;;;;;39.90;23.55;;;13.90;99.90;;;;;;4951024;29;20053;-78
2021/11/02 17:50:27;;;;;;;34.08;22.73;;;13.90;99.90;;;;;;4950390;28;20451;-77
2021/11/02 17:52:55;;;;;;;38.33;23.00;;;13.80;99.90;;;;;;4969950;28;20049;-78
2021/11/02 17:55:23;;;;;;;42.40;23.05;;;13.60;99.90;;;;;;4971942;28;20066;-76
2021/11/02 17:57:55;;;;;;;42.28;24.20;;;13.70;99.90;;;;;;4973312;28;20435;-78
2021/11/02 18:00:26;;;;;;;43.90;24.63;;;13.40;99.90;;;;;;4954550;28;20035;-80
2021/11/02 18:02:57;;;;;;;38.58;24.08;;;13.40;99.90;;;;;;4959919;28;20039;-76
2021/11/02 18:05:27;;;;;;;34.72;22.85;;;13.50;99.90;;;;;;4962323;28;20385;-76
2021/11/02 18:07:55;;;;;;;38.22;23.25;;;13.50;99.90;;;;;;4963925;28;20050;-78
2021/11/02 18:10:26;;;;;;;34.58;22.63;;;13.50;99.90;;;;;;4967433;28;20126;-79
2021/11/02 18:12:55;;;;;;;35.40;23.58;;;13.60;99.90;;;;;;4949164;28;20042;-77
2021/11/02 18:15:24;;;;;;;38.20;24.98;;;13.70;99.90;;;;;;4946428;28;20035;-79
2021/11/02 18:17:56;;;;;;;36.23;24.13;;;13.70;99.90;;;;;;4963129;28;20484;-77
2021/11/02 18:20:25;;;;;;;38.08;23.25;;;13.80;99.90;;;;;;4974683;28;20351;-77